Time;durP1;ratioP1;P1;durP2;ratioP2;P2;SDS_P1;SDS_P2;PMS_P1;PMS_P2;Temp;Humidity;BMP_temperature;BMP_pressure;BME280_temperature;BME280_humidity;BME280_pressure;Samples;Min_cycle;Max_cycle;Signal;HPM_P1;HPM_P2
2022/04/16 00:01:31;;;;;;;1.80;1.13;;;;;;;;;;5087942;28;20463;-68
2022/04/16 00:03:58;;;;;;;1.33;1.23;;;;;;;;;;5101136;28;20562;-69
2022/04/16 00:06:25;;;;;;;1.55;1.08;;;;;;;;;;5100899;28;20451;-69
2022/04/16 00:08:53;;;;;;;4.13;1.43;;;;;;;;;;5101812;28;20212;-69
2022/04/16 00:11:20;;;;;;;1.50;1.00;;;;;;;;;;5094428;28;20931;-67
2022/04/16 00:13:50;;;;;;;1.57;1.13;;;;;;;;;;5103653;28;20822;-66
2022/04/16 00:16:18;;;;;;;1.00;0.90;;;;;;;;;;5098170;28;20540;-69
2022/04/16 00:18:46;;;;;;;1.83;1.13;;;;;;;;;;5097165;28;20452;-67
2022/04/16 00:21:13;;;;;;;1.23;1.10;;;;;;;;;;5101833;28;20202;-67
2022/04/16 00:23:41;;;;;;;2.47;1.30;;;;;;;;;;5103405;28;20492;-67
2022/04/16 00:26:12;;;;;;;1.07;0.97;;;;;;;;;;5098912;28;20454;-68
2022/04/16 00:28:39;;;;;;;1.63;1.00;;;;;;;;;;5097120;28;20450;-67
2022/04/16 00:31:06;;;;;;;2.63;1.40;;;;;;;;;;5100714;28;20207;-69
2022/04/16 00:33:35;;;;;;;1.13;1.00;;;;;;;;;;5106043;28;20491;-67
2022/04/16 00:36:02;;;;;;;2.13;1.47;;;;;;;;;;5101187;28;20531;-67
2022/04/16 00:38:30;;;;;;;1.33;1.23;;;;;;;;;;5090044;28;20772;-67
2022/04/16 00:40:57;;;;;;;2.40;1.20;;;;;;;;;;5101406;28;20458;-67
2022/04/16 00:43:25;;;;;;;1.17;1.00;;;;;;;;;;5096211;28;20579;-67
2022/04/16 00:45:53;;;;;;;2.40;1.23;;;;;;;;;;5098813;28;20444;-67
2022/04/16 00:48:20;;;;;;;1.90;1.13;;;;;;;;;;5103749;28;20451;-67
2022/04/16 00:50:49;;;;;;;1.60;1.30;;;;;;;;;;5106870;28;20475;-68
2022/04/16 00:53:17;;;;;;;1.53;1.13;;;;;;;;;;5099636;28;20451;-67
2022/04/16 00:55:44;;;;;;;1.88;1.27;;;;;;;;;;5102098;28;20544;-68
2022/04/16 00:58:12;;;;;;;1.35;1.05;;;;;;;;;;5106994;28;20201;-68
2022/04/16 01:00:39;;;;;;;2.50;1.47;;;;;;;;;;5107118;28;20201;-68
2022/04/16 01:03:07;;;;;;;1.20;0.97;;;;;;;;;;5099409;28;20503;-69
2022/04/16 01:05:35;;;;;;;1.40;1.30;;;;;;;;;;5114165;28;20538;-67
2022/04/16 01:08:04;;;;;;;1.73;1.30;;;;;;;;;;5101239;28;20495;-68
2022/04/16 01:10:32;;;;;;;2.20;1.05;;;;;;;;;;5100657;28;20444;-67
2022/04/16 01:13:00;;;;;;;1.30;1.20;;;;;;;;;;5105949;28;20556;-68
2022/04/16 01:15:29;;;;;;;1.30;1.00;;;;;;;;;;5106668;28;20451;-68
2022/04/16 01:17:57;;;;;;;1.30;1.10;;;;;;;;;;5101843;28;20206;-68
2022/04/16 01:20:24;;;;;;;1.10;0.90;;;;;;;;;;5099654;28;20445;-67
2022/04/16 01:22:56;;;;;;;1.13;1.03;;;;;;;;;;5104794;28;20448;-67
2022/04/16 01:25:25;;;;;;;1.20;0.93;;;;;;;;;;5106311;28;20523;-68
2022/04/16 01:27:52;;;;;;;1.30;0.80;;;;;;;;;;5103425;28;20455;-67
2022/04/16 01:30:20;;;;;;;1.33;1.10;;;;;;;;;;5099625;28;20293;-67
2022/04/16 01:32:48;;;;;;;1.70;1.43;;;;;;;;;;5102908;28;20872;-67
2022/04/16 01:35:17;;;;;;;1.30;1.20;;;;;;;;;;5098191;28;20532;-67
2022/04/16 01:37:44;;;;;;;1.03;0.80;;;;;;;;;;5102003;28;20925;-67
2022/04/16 01:40:14;;;;;;;1.00;0.70;;;;;;;;;;5105096;28;20536;-67
2022/04/16 01:42:43;;;;;;;2.70;1.10;;;;;;;;;;5094219;28;20444;-68
2022/04/16 01:45:11;;;;;;;1.30;1.20;;;;;;;;;;5096393;28;20528;-68
2022/04/16 01:47:38;;;;;;;1.40;1.10;;;;;;;;;;5098194;28;20459;-68
2022/04/16 01:50:07;;;;;;;1.03;0.93;;;;;;;;;;5096319;28;20456;-69
2022/04/16 01:52:34;;;;;;;1.13;1.00;;;;;;;;;;5093501;28;20543;-67
2022/04/16 01:55:01;;;;;;;2.90;1.30;;;;;;;;;;5103923;28;20478;-68
2022/04/16 01:57:30;;;;;;;1.30;1.00;;;;;;;;;;5097233;28;20540;-68
2022/04/16 01:59:57;;;;;;;1.97;1.17;;;;;;;;;;5102966;28;20459;-68
2022/04/16 02:02:24;;;;;;;1.13;0.97;;;;;;;;;;5103522;28;20566;-68
2022/04/16 02:04:51;;;;;;;1.25;1.15;;;;;;;;;;5097478;28;21033;-67
2022/04/16 02:07:19;;;;;;;0.93;0.82;;;;;;;;;;5094470;28;20198;-67
2022/04/16 02:09:46;;;;;;;1.50;0.87;;;;;;;;;;5102613;28;20206;-68
2022/04/16 02:12:13;;;;;;;1.93;1.07;;;;;;;;;;5102949;28;20459;-67
2022/04/16 02:14:42;;;;;;;1.00;0.90;;;;;;;;;;5098490;28;20471;-67
2022/04/16 02:17:09;;;;;;;1.13;1.02;;;;;;;;;;5099216;28;20544;-67
2022/04/16 02:19:38;;;;;;;1.17;1.00;;;;;;;;;;5089917;28;20202;-67
2022/04/16 02:22:05;;;;;;;1.65;1.55;;;;;;;;;;5101729;28;20456;-67
2022/04/16 02:24:33;;;;;;;3.10;1.37;;;;;;;;;;5090068;28;20228;-68
2022/04/16 02:27:00;;;;;;;1.20;0.90;;;;;;;;;;5097289;28;20527;-68
2022/04/16 02:29:27;;;;;;;1.70;1.30;;;;;;;;;;5099044;28;20209;-69
2022/04/16 02:31:56;;;;;;;1.67;1.00;;;;;;;;;;5095726;28;20464;-68
2022/04/16 02:34:23;;;;;;;1.30;1.03;;;;;;;;;;5100503;28;20471;-68
2022/04/16 02:36:50;;;;;;;1.83;1.47;;;;;;;;;;5094036;28;20663;-68
2022/04/16 02:39:17;;;;;;;1.98;1.08;;;;;;;;;;5099780;28;20458;-68
2022/04/16 02:41:44;;;;;;;1.50;1.30;;;;;;;;;;5097058;28;20444;-69
2022/04/16 02:47:05;;;;;;;1.40;1.03;;;;;;;;;;5088727;28;20483;-68
2022/04/16 02:47:05;;;;;;;1.40;1.03;;;;;;;;;;5089560;28;20797;-68
2022/04/16 02:49:32;;;;;;;1.10;1.00;;;;;;;;;;5094888;28;20483;-68
2022/04/16 02:51:59;;;;;;;1.43;1.03;;;;;;;;;;5095935;28;20940;-68
2022/04/16 02:54:26;;;;;;;1.20;1.10;;;;;;;;;;5092909;28;20540;-67
2022/04/16 02:56:55;;;;;;;1.17;1.07;;;;;;;;;;5104811;28;20442;-68
2022/04/16 02:59:23;;;;;;;2.00;1.10;;;;;;;;;;5095079;28;20453;-68
2022/04/16 03:01:50;;;;;;;2.27;1.50;;;;;;;;;;5099471;28;20999;-68
2022/04/16 03:04:18;;;;;;;1.47;1.07;;;;;;;;;;5097308;28;20584;-68
2022/04/16 03:06:46;;;;;;;1.70;0.80;;;;;;;;;;5088731;28;20930;-68
2022/04/16 03:09:13;;;;;;;1.03;0.93;;;;;;;;;;5102181;28;20459;-68
2022/04/16 03:11:40;;;;;;;1.70;1.10;;;;;;;;;;5098482;28;20441;-68
2022/04/16 03:19:38;;;;;;;1.80;1.33;;;;;;;;;;5096941;28;20913;-68
2022/04/16 03:22:05;;;;;;;1.15;1.05;;;;;;;;;;5096419;28;20194;-68
2022/04/16 03:24:32;;;;;;;1.60;1.43;;;;;;;;;;5097538;28;20221;-68
2022/04/16 03:27:00;;;;;;;1.80;1.20;;;;;;;;;;5093500;28;20801;-68
2022/04/16 03:29:27;;;;;;;1.57;1.37;;;;;;;;;;5099534;28;20457;-68
2022/04/16 03:31:54;;;;;;;1.17;1.03;;;;;;;;;;5101790;28;20453;-68
2022/04/16 03:34:21;;;;;;;1.30;1.20;;;;;;;;;;5090159;28;20452;-68
2022/04/16 03:36:50;;;;;;;1.20;1.10;;;;;;;;;;5101277;28;20813;-68
2022/04/16 03:39:17;;;;;;;1.27;1.00;;;;;;;;;;5098701;28;20459;-68
2022/04/16 03:41:45;;;;;;;1.60;1.30;;;;;;;;;;5094333;28;20542;-68
2022/04/16 03:44:12;;;;;;;1.30;1.20;;;;;;;;;;5096771;28;20571;-68
2022/04/16 03:46:39;;;;;;;1.37;1.17;;;;;;;;;;5099160;28;20535;-68
2022/04/16 03:49:06;;;;;;;1.20;1.00;;;;;;;;;;5099311;28;20531;-68
2022/04/16 03:51:33;;;;;;;2.00;0.97;;;;;;;;;;5104694;28;20444;-68
2022/04/16 04:02:12;;;;;;;2.03;1.00;;;;;;;;;;5102015;28;20495;-68
2022/04/16 04:04:40;;;;;;;1.00;0.90;;;;;;;;;;5099609;28;20537;-69
2022/04/16 04:07:07;;;;;;;1.23;1.03;;;;;;;;;;5091493;28;20440;-68
2022/04/16 04:09:37;;;;;;;1.00;0.90;;;;;;;;;;5105323;28;20924;-68
2022/04/16 04:12:05;;;;;;;1.60;1.00;;;;;;;;;;5097989;28;20877;-68
2022/04/16 04:14:32;;;;;;;1.80;1.03;;;;;;;;;;5101841;28;20537;-68
2022/04/16 04:16:59;;;;;;;1.20;1.10;;;;;;;;;;5104535;28;20447;-69
2022/04/16 04:19:26;;;;;;;1.13;1.03;;;;;;;;;;5092002;28;20452;-68
2022/04/16 04:21:54;;;;;;;1.53;1.23;;;;;;;;;;5091273;28;20971;-69
2022/04/16 04:24:21;;;;;;;1.00;0.80;;;;;;;;;;5105081;28;20557;-68
2022/04/16 04:26:49;;;;;;;0.97;0.87;;;;;;;;;;5099745;28;20447;-68
2022/04/16 04:29:16;;;;;;;1.53;1.20;;;;;;;;;;5101088;28;20441;-68
2022/04/16 04:31:43;;;;;;;1.97;1.27;;;;;;;;;;5107589;28;20945;-68
2022/04/16 04:34:11;;;;;;;1.47;1.37;;;;;;;;;;5105589;28;20863;-68
2022/04/16 04:36:38;;;;;;;0.97;0.90;;;;;;;;;;5109219;28;20462;-68
2022/04/16 04:39:05;;;;;;;1.20;1.07;;;;;;;;;;5101181;28;20452;-69
2022/04/16 04:41:32;;;;;;;1.47;1.10;;;;;;;;;;5106864;28;20458;-69
2022/04/16 04:44:01;;;;;;;1.13;1.00;;;;;;;;;;5102645;28;20534;-69
2022/04/16 04:46:28;;;;;;;1.40;1.27;;;;;;;;;;5108459;28;20459;-67
2022/04/16 04:48:55;;;;;;;1.53;1.13;;;;;;;;;;5099659;28;20447;-68
2022/04/16 04:51:22;;;;;;;1.20;1.07;;;;;;;;;;5098784;28;20443;-68
2022/04/16 04:53:49;;;;;;;1.10;1.00;;;;;;;;;;5102931;28;20444;-69
2022/04/16 04:56:17;;;;;;;1.37;1.27;;;;;;;;;;5105868;28;20479;-69
2022/04/16 04:58:44;;;;;;;3.27;1.40;;;;;;;;;;5102571;28;20454;-69
2022/04/16 05:01:12;;;;;;;2.03;1.30;;;;;;;;;;5095045;28;20531;-69
2022/04/16 05:03:39;;;;;;;2.07;1.40;;;;;;;;;;5102333;28;20490;-67
2022/04/16 05:06:07;;;;;;;1.57;0.93;;;;;;;;;;5100697;28;20615;-66
2022/04/16 05:08:34;;;;;;;2.43;1.50;;;;;;;;;;5099504;28;20531;-67
2022/04/16 05:11:01;;;;;;;1.60;1.40;;;;;;;;;;5105207;28;20451;-68
2022/04/16 05:13:28;;;;;;;1.43;1.20;;;;;;;;;;5099893;28;20473;-69
2022/04/16 05:15:55;;;;;;;1.98;1.58;;;;;;;;;;5107255;28;20448;-68
2022/04/16 05:18:25;;;;;;;1.77;1.53;;;;;;;;;;5101377;28;20194;-69
2022/04/16 05:20:52;;;;;;;2.23;0.90;;;;;;;;;;5099694;28;20439;-68
2022/04/16 05:23:20;;;;;;;0.90;0.80;;;;;;;;;;5099867;28;20443;-68
2022/04/16 05:25:47;;;;;;;1.63;1.47;;;;;;;;;;5104579;28;20483;-67
2022/04/16 05:28:14;;;;;;;1.50;1.17;;;;;;;;;;5093788;28;20459;-67
2022/04/16 05:30:44;;;;;;;2.40;1.73;;;;;;;;;;5099385;28;20450;-67
2022/04/16 05:34:18;;;;;;;3.00;1.60;;;;;;;;;;5100934;28;20460;-67
2022/04/16 05:36:05;;;;;;;1.87;1.33;;;;;;;;;;5102628;28;20445;-67
2022/04/16 05:38:33;;;;;;;1.53;1.30;;;;;;;;;;5099880;28;20540;-67
2022/04/16 05:41:00;;;;;;;1.90;1.23;;;;;;;;;;5093309;28;20459;-67
2022/04/16 05:43:27;;;;;;;1.30;1.10;;;;;;;;;;5105304;28;20455;-68
2022/04/16 05:45:55;;;;;;;1.97;1.13;;;;;;;;;;5103372;28;20483;-68
2022/04/16 05:48:22;;;;;;;1.90;1.50;;;;;;;;;;5097671;28;20451;-68
2022/04/16 05:50:49;;;;;;;1.20;1.10;;;;;;;;;;5099436;28;20448;-68
2022/04/16 05:53:18;;;;;;;1.53;1.07;;;26.20;1.00;;;;;;5104881;28;20462;-68
2022/04/16 05:55:48;;;;;;;1.80;1.30;;;11.10;1.00;;;;;;5105395;28;21003;-68
2022/04/16 05:58:15;;;;;;;2.10;1.37;;;11.00;99.90;;;;;;5099716;28;20444;-68
2022/04/16 06:00:42;;;;;;;1.70;1.60;;;11.10;99.90;;;;;;5095962;28;20440;-68
2022/04/16 06:03:09;;;;;;;1.42;1.33;;;11.10;99.90;;;;;;5106156;28;20475;-68
2022/04/16 06:05:36;;;;;;;1.60;1.20;;;11.10;99.90;;;;;;5099041;28;20257;-68
2022/04/16 06:08:04;;;;;;;2.03;1.10;;;11.10;99.90;;;;;;5100931;28;20440;-67
2022/04/16 06:10:32;;;;;;;1.60;1.47;;;11.20;99.90;;;;;;5095978;28;20454;-68
2022/04/16 06:12:59;;;;;;;1.10;1.00;;;11.30;99.90;;;;;;5096366;28;20437;-68
2022/04/16 06:15:26;;;;;;;2.03;1.38;;;11.40;99.90;;;;;;5097104;28;20451;-68
2022/04/16 06:17:53;;;;;;;3.05;1.35;;;11.30;59.80;;;;;;5104907;28;20193;-68
2022/04/16 06:20:20;;;;;;;2.33;1.77;;;11.00;99.90;;;;;;5105166;28;20186;-68
2022/04/16 06:22:47;;;;;;;1.60;1.42;;;11.00;99.90;;;;;;5106680;28;20440;-68
2022/04/16 06:25:14;;;;;;;1.50;1.30;;;11.10;99.90;;;;;;5098045;28;20301;-68
2022/04/16 06:27:42;;;;;;;1.50;1.40;;;11.10;99.90;;;;;;5096236;28;20538;-68
2022/04/16 06:30:10;;;;;;;1.33;1.23;;;;;;;;;;5106324;28;20186;-67
2022/04/16 06:32:38;;;;;;;3.00;1.50;;;;;;;;;;5107498;28;20511;-67
2022/04/16 06:35:05;;;;;;;1.53;1.23;;;;;;;;;;5099134;28;20451;-67
2022/04/16 06:37:33;;;;;;;3.10;1.30;;;;;;;;;;5109065;28;20442;-69
2022/04/16 06:40:00;;;;;;;2.23;1.60;;;;;;;;;;5109214;28;20440;-68
2022/04/16 06:42:28;;;;;;;1.40;1.07;;;;;;;;;;5099040;28;20951;-68
2022/04/16 06:44:56;;;;;;;2.07;1.50;;;;;;;;;;5099963;28;20563;-68
2022/04/16 06:47:24;;;;;;;1.60;1.40;;;;;;;;;;5096715;28;21017;-68
2022/04/16 06:49:51;;;;;;;2.07;1.57;;;;;;;;;;5101086;28;20482;-68
2022/04/16 06:52:19;;;;;;;1.65;1.40;;;;;;;;;;5096778;28;20484;-67
2022/04/16 06:54:47;;;;;;;2.70;1.80;;;;;;;;;;5105220;28;20617;-68
2022/04/16 06:57:14;;;;;;;1.33;1.10;;;;;;;;;;5111237;28;20530;-67
2022/04/16 06:59:42;;;;;;;2.47;1.52;;;;;;;;;;5098602;28;20452;-68
2022/04/16 07:02:11;;;;;;;1.77;1.30;;;;;;;;;;5103073;28;20225;-68
2022/04/16 07:04:38;;;;;;;1.92;1.40;;;;;;;;;;5108490;28;20644;-68
2022/04/16 07:07:08;;;;;;;1.90;1.70;;;;;;;;;;5099945;28;20293;-68
2022/04/16 07:09:38;;;;;;;2.30;1.55;;;;;;;;;;5096113;28;20502;-68
2022/04/16 07:12:07;;;;;;;2.87;1.93;;;;;;;;;;5101847;28;20190;-68
2022/04/16 07:14:34;;;;;;;2.80;1.93;;;;;;;;;;5095421;28;20958;-69
2022/04/16 07:17:01;;;;;;;1.93;1.60;;;;;;;;;;5097154;28;20472;-68
2022/04/16 07:19:30;;;;;;;4.13;1.80;;;;;;;;;;5095018;28;20455;-68
2022/04/16 07:21:57;;;;;;;2.60;1.83;;;;;;;;;;5103956;28;20539;-68
2022/04/16 07:24:25;;;;;;;2.30;1.87;;;;;;;;;;5100105;28;20448;-67
2022/04/16 07:26:53;;;;;;;2.63;1.63;;;;;;;;;;5104247;28;20484;-67
2022/04/16 07:29:20;;;;;;;2.27;1.57;;;;;;;;;;5095578;28;20448;-67
2022/04/16 07:31:48;;;;;;;2.67;1.83;;;;;;;;;;5094357;28;20463;-67
2022/04/16 07:34:15;;;;;;;2.43;1.80;;;;;;;;;;5097234;28;20448;-67
2022/04/16 07:36:44;;;;;;;2.30;1.30;;;;;;;;;;5102766;28;20467;-67
2022/04/16 07:39:11;;;;;;;2.60;1.93;;;;;;;;;;5102793;28;20532;-67
2022/04/16 07:41:38;;;;;;;2.27;1.70;;;;;;;;;;5104664;28;20483;-68
2022/04/16 07:44:06;;;;;;;2.27;1.67;;;;;;;;;;5102762;28;20469;-67
2022/04/16 07:46:34;;;;;;;2.93;1.90;;;;;;;;;;5105310;28;20476;-68
2022/04/16 07:49:01;;;;;;;2.10;1.85;;;;;;;;;;5097618;28;20449;-68
2022/04/16 07:51:29;;;;;;;4.10;2.03;;;;;;;;;;5102282;28;20201;-67
2022/04/16 07:53:58;;;;;;;2.50;1.97;;;;;;;;;;5095938;28;20488;-68
2022/04/16 07:56:26;;;;;;;3.47;1.80;;;;;;;;;;5103576;28;20820;-68
2022/04/16 07:58:54;;;;;;;3.80;2.00;;;;;;;;;;5103233;28;20451;-67
2022/04/16 08:01:21;;;;;;;3.57;2.30;;;;;;;;;;5105857;28;20601;-67
2022/04/16 08:03:48;;;;;;;3.27;2.07;;;;;;;;;;5105439;28;20458;-67
2022/04/16 08:06:15;;;;;;;3.60;2.20;;;;;;;;;;5099541;28;20502;-67
2022/04/16 08:08:43;;;;;;;5.50;2.30;;;;;;;;;;5103140;28;20454;-67
2022/04/16 08:11:11;;;;;;;3.00;2.50;;;;;;;;;;5095583;28;20455;-69
2022/04/16 08:13:39;;;;;;;3.60;2.10;;;;;;;;;;5095998;28;20448;-68
2022/04/16 08:16:06;;;;;;;2.83;2.13;;;;;;;;;;5090923;28;20462;-68
2022/04/16 08:18:33;;;;;;;4.70;2.53;;;;;;;;;;5103480;28;20458;-68
2022/04/16 08:21:01;;;;;;;3.70;2.30;;;;;;;;;;5100350;28;21007;-68
2022/04/16 08:23:28;;;;;;;3.20;2.20;;;;;;;;;;5092263;28;20447;-68
2022/04/16 08:25:55;;;;;;;3.97;2.60;;;;;;;;;;5096378;28;20850;-68
2022/04/16 08:28:24;;;;;;;3.37;2.47;;;;;;;;;;5092188;28;20455;-69
2022/04/16 08:30:51;;;;;;;3.80;2.50;;;;;;;;;;5094455;28;21034;-67
2022/04/16 08:33:19;;;;;;;1.77;1.67;;;;;;;;;;5092275;28;20479;-67
2022/04/16 08:35:46;;;;;;;2.70;2.03;;;;;;;;;;5098841;28;20458;-65
2022/04/16 08:38:14;;;;;;;6.45;2.97;;;;;;;;;;5103959;28;21016;-67
2022/04/16 08:40:41;;;;;;;4.83;2.53;;;;;;;;;;5094499;28;20225;-68
2022/04/16 08:43:08;;;;;;;2.20;2.00;;;;;;;;;;5098013;28;20526;-67
2022/04/16 08:45:40;;;;;;;4.00;2.57;;;;;;;;;;5095569;28;20476;-68
2022/04/16 08:48:07;;;;;;;5.10;2.83;;;;;;;;;;5103433;28;20440;-67
2022/04/16 08:50:35;;;;;;;3.67;2.13;;;;;;;;;;5094375;28;20452;-66
2022/04/16 08:53:02;;;;;;;4.60;3.00;;;;;;;;;;5095057;28;20996;-67
2022/04/16 08:55:30;;;;;;;2.50;2.15;;;;;;;;;;5089880;28;20551;-67
2022/04/16 08:57:57;;;;;;;2.70;2.03;;;;;;;;;;5093630;28;20209;-69
2022/04/16 09:00:24;;;;;;;2.97;2.57;;;;;;;;;;5094725;28;20194;-69
2022/04/16 09:02:54;;;;;;;3.50;2.37;;;;;;;;;;5092070;28;20484;-68
2022/04/16 09:05:21;;;;;;;2.07;1.87;;;;;;;;;;5098417;28;20459;-69
2022/04/16 09:07:49;;;;;;;3.60;2.50;;;;;;;;;;5104297;28;20451;-70
2022/04/16 09:10:16;;;;;;;3.10;2.60;;;;;;;;;;5098586;28;20444;-69
2022/04/16 09:12:44;;;;;;;8.20;2.67;;;;;;;;;;5108244;28;20812;-70
2022/04/16 09:15:12;;;;;;;4.03;2.40;;;;;;;;;;5107071;28;20443;-70
2022/04/16 09:17:40;;;;;;;3.67;2.63;;;;;;;;;;5108072;28;20479;-67
2022/04/16 09:20:12;;;;;;;3.55;2.65;;;;;;;;;;5108470;28;20447;-68
2022/04/16 09:22:40;;;;;;;4.07;2.30;;;;;;;;;;5093846;28;20639;-68
2022/04/16 09:25:14;;;;;;;3.30;2.27;;;;;;;;;;5105684;28;20485;-68
2022/04/16 09:27:42;;;;;;;5.97;3.20;;;;;;;;;;5102687;28;20562;-67
2022/04/16 09:30:09;;;;;;;3.40;2.73;;;;;;;;;;5106648;28;20471;-68
2022/04/16 09:32:43;;;;;;;5.07;2.70;;;;;;;;;;5101672;28;20448;-68
2022/04/16 09:35:21;;;;;;;3.20;2.73;;;;;;;;;;5107516;28;20278;-67
2022/04/16 09:37:51;;;;;;;5.25;3.28;;;;;;;;;;5100590;28;20879;-68
2022/04/16 09:40:18;;;;;;;3.80;2.77;;;;;;;;;;5100546;28;20198;-69
2022/04/16 09:42:52;;;;;;;5.47;4.10;;;;;;;;;;5100147;28;20459;-68
2022/04/16 09:45:19;;;;;;;6.97;3.40;;;;;;;;;;5100221;28;20452;-71
2022/04/16 09:47:49;;;;;;;4.23;3.00;;;;;;;;;;5101121;28;20490;-68
2022/04/16 09:50:18;;;;;;;3.97;3.00;;;;;;;;;;5094492;28;20456;-69
2022/04/16 09:52:47;;;;;;;3.83;2.70;;;;;;;;;;5103329;28;20281;-70
2022/04/16 09:55:14;;;;;;;3.07;2.27;;;;;;;;;;5091333;28;20444;-69
2022/04/16 09:57:42;;;;;;;2.57;2.30;;;;;;;;;;5103337;28;20555;-69
2022/04/16 10:00:09;;;;;;;3.07;2.50;;;;;;;;;;5098719;28;20443;-69
2022/04/16 10:02:37;;;;;;;4.78;2.80;;;;;;;;;;5093400;28;20992;-69
2022/04/16 10:05:05;;;;;;;4.13;3.00;;;;;;;;;;5110503;28;20712;-68
2022/04/16 10:07:34;;;;;;;8.10;2.70;;;;;;;;;;5096576;28;20575;-71
2022/04/16 10:10:03;;;;;;;2.97;2.30;;;;;;;;;;5092035;28;20456;-69
2022/04/16 10:15:20;;;;;;;4.17;2.30;;;;;;;;;;5057274;28;20198;-68
2022/04/16 10:17:49;;;;;;;2.77;2.03;;;;;;;;;;5102316;28;20462;-70
2022/04/16 10:20:17;;;;;;;3.03;2.40;;;;;;;;;;5096292;28;20456;-69
2022/04/16 10:22:54;;;;;;;2.35;2.15;;;;;;;;;;5089484;28;20532;-69
2022/04/16 10:25:34;;;;;;;4.30;2.53;;;;;;;;;;5100657;28;20654;-70
2022/04/16 10:28:02;;;;;;;2.63;2.03;;;;;;;;;;5097049;28;20476;-69
2022/04/16 10:30:37;;;;;;;3.67;2.87;;;;;;;;;;5088759;28;20571;-69
2022/04/16 10:33:16;;;;;;;3.20;2.43;;;;;;;;;;5091596;28;20470;-69
2022/04/16 10:35:49;;;;;;;5.00;2.80;;;;;;;;;;5095610;28;20450;-69
2022/04/16 10:38:24;;;;;;;5.53;2.97;;;;;;;;;;5094510;28;20440;-69
2022/04/16 10:40:57;;;;;;;3.73;2.93;;;;;;;;;;5098830;28;20450;-69
2022/04/16 10:43:28;;;;;;;3.00;2.30;;;;;;;;;;5095248;28;20441;-69
2022/04/16 10:46:02;;;;;;;4.53;2.80;;;;;;;;;;5100595;28;20456;-69
2022/04/16 10:48:30;;;;;;;3.70;2.40;;;;;;;;;;5101552;28;20475;-70
2022/04/16 10:50:58;;;;;;;4.70;2.40;;;;;;;;;;5092559;28;20213;-70
2022/04/16 10:53:32;;;;;;;5.47;2.80;;;;;;;;;;5095158;28;20448;-70
2022/04/16 10:56:06;;;;;;;4.20;2.70;;;;;;;;;;5095514;28;20530;-72
2022/04/16 10:58:33;;;;;;;3.27;2.87;;;;;;;;;;5099363;28;20544;-71
2022/04/16 11:01:08;;;;;;;4.73;2.43;;;;;;;;;;5095003;28;20454;-70
2022/04/16 11:03:35;;;;;;;3.43;2.60;;;;;;;;;;5101444;28;20483;-71
2022/04/16 11:06:03;;;;;;;3.87;3.00;;;;;;;;;;5102297;28;20488;-69
2022/04/16 11:08:35;;;;;;;3.47;2.57;;;;;;;;;;5094037;28;20448;-69
2022/04/16 11:11:02;;;;;;;3.87;2.50;;;;;;;;;;5094125;28;20559;-69
2022/04/16 11:13:31;;;;;;;3.10;2.20;;;;;;;;;;5088043;28;20456;-69
2022/04/16 11:15:58;;;;;;;3.25;2.60;;;;;;;;;;5100961;28;20448;-70
2022/04/16 11:18:26;;;;;;;4.70;2.40;;;;;;;;;;5088563;28;20232;-70
2022/04/16 11:20:56;;;;;;;2.80;2.20;;;;;;;;;;5102602;28;20494;-70
2022/04/16 11:23:26;;;;;;;4.30;2.73;;;;;;;;;;5097160;28;20448;-70
2022/04/16 11:34:18;;;;;;;3.67;1.67;;;;;;;;;;5087674;28;20493;-69
2022/04/16 11:36:45;;;;;;;3.33;2.27;;;;;;;;;;5091622;28;20436;-70
2022/04/16 11:39:19;;;;;;;3.73;2.67;;;;;;;;;;5089567;28;20455;-70
2022/04/16 11:41:54;;;;;;;4.37;3.20;;;;;;;;;;5103018;28;20527;-70
2022/04/16 11:44:38;;;;;;;3.03;2.20;;;;;;;;;;5095197;28;20975;-70
2022/04/16 11:47:07;;;;;;;3.28;2.00;;;;;;;;;;5092190;28;20464;-70
2022/04/16 11:49:35;;;;;;;3.50;2.00;;;;;;;;;;5089954;28;20224;-70
2022/04/16 11:52:02;;;;;;;4.13;2.87;;;;;;;;;;5104231;28;20874;-70
2022/04/16 11:54:30;;;;;;;3.00;2.20;;;;;;;;;;5094295;28;20448;-69
2022/04/16 11:56:59;;;;;;;3.53;2.30;;;;;;;;;;5099974;28;20459;-69
2022/04/16 11:59:26;;;;;;;4.10;2.60;;;;;;;;;;5102175;28;20810;-70
2022/04/16 12:02:01;;;;;;;3.17;2.37;;;;;;;;;;5088515;28;21037;-69
2022/04/16 12:04:49;;;;;;;2.70;2.20;;;;;;;;;;5090978;28;20447;-70
2022/04/16 12:07:17;;;;;;;2.53;2.27;;;;;;;;;;5085815;28;21068;-70
2022/04/16 12:09:47;;;;;;;6.03;3.00;;;;;;;;;;5093359;28;20888;-71
2022/04/16 12:12:17;;;;;;;2.50;1.93;;;;;;;;;;5088912;28;20909;-70
2022/04/16 12:14:47;;;;;;;2.70;2.00;;;;;;;;;;5090560;28;20445;-68
2022/04/16 12:17:22;;;;;;;4.97;2.93;;;;;;;;;;5097860;28;20448;-72
2022/04/16 12:19:57;;;;;;;3.90;1.93;;;;;;;;;;5097912;28;20502;-71
2022/04/16 12:22:24;;;;;;;3.77;2.57;;;;;;;;;;5090100;28;20520;-71
2022/04/16 12:24:51;;;;;;;3.47;2.60;;;;;;;;;;5087606;28;21186;-71
2022/04/16 12:27:27;;;;;;;3.80;2.45;;;;;;;;;;5100006;28;20473;-71
2022/04/16 12:29:56;;;;;;;3.53;2.10;;;;;;;;;;5101585;28;20307;-71
2022/04/16 12:32:26;;;;;;;3.67;2.47;;;;;;;;;;5094945;28;20456;-72
2022/04/16 12:34:54;;;;;;;3.90;2.60;;;;;;;;;;5090783;28;21163;-72
2022/04/16 12:37:21;;;;;;;3.97;2.20;;;;;;;;;;5097126;28;20535;-72
2022/04/16 12:39:49;;;;;;;4.93;2.83;;;;;;;;;;5101637;28;20212;-73
2022/04/16 12:42:16;;;;;;;2.90;2.20;;;;;;;;;;5096149;28;20816;-72
2022/04/16 12:44:45;;;;;;;3.28;2.25;;;;;;;;;;5098369;28;20535;-71
2022/04/16 12:47:13;;;;;;;2.53;2.15;;;;;;;;;;5098081;28;20217;-73
2022/04/16 12:49:41;;;;;;;2.43;2.23;;;;;;;;;;5107388;28;20274;-72
2022/04/16 12:52:08;;;;;;;3.37;2.33;;;;;;;;;;5110115;28;20446;-71
2022/04/16 12:54:35;;;;;;;3.87;2.47;;;;;;;;;;5095374;28;20562;-72
2022/04/16 12:57:03;;;;;;;3.17;2.20;;;;;;;;;;5102158;28;20543;-69
2022/04/16 12:59:30;;;;;;;3.93;2.23;;;;;;;;;;5105314;28;20818;-68
2022/04/16 13:01:59;;;;;;;3.10;2.33;;;;;;;;;;5094156;28;20996;-69
2022/04/16 13:04:29;;;;;;;2.67;1.85;;;;;;;;;;5091143;28;20555;-70
2022/04/16 13:06:56;;;;;;;3.33;2.40;;;;;;;;;;5103266;28;20209;-69
2022/04/16 13:09:23;;;;;;;2.30;1.60;;;;;;;;;;5101641;28;20528;-69
2022/04/16 13:11:53;;;;;;;3.80;2.60;;;;;;;;;;5105605;28;20444;-69
2022/04/16 13:14:20;;;;;;;3.20;2.57;;;;;;;;;;5097834;28;20851;-68
2022/04/16 13:16:47;;;;;;;2.25;2.00;;;;;;;;;;5096628;28;20510;-69
2022/04/16 13:19:16;;;;;;;3.10;2.10;;;;;;;;;;5096996;28;20284;-71
2022/04/16 13:21:43;;;;;;;3.97;2.07;;;;;;;;;;5098305;28;20445;-71
2022/04/16 13:24:14;;;;;;;4.43;2.13;;;;;;;;;;5102969;28;20463;-71
2022/04/16 13:26:41;;;;;;;4.50;2.60;;;;;;;;;;5094741;28;20472;-72
2022/04/16 13:29:08;;;;;;;4.00;1.93;;;;;;;;;;5100721;28;20518;-71
2022/04/16 13:31:36;;;;;;;3.40;2.00;;;;;;;;;;5103099;28;20463;-71
2022/04/16 13:34:03;;;;;;;3.63;2.13;;;;;;;;;;5099270;28;20459;-71
2022/04/16 13:36:31;;;;;;;2.10;1.90;;;;;;;;;;5095710;28;20637;-71
2022/04/16 13:38:59;;;;;;;3.37;2.40;;;;;;;;;;5099033;28;20458;-72
2022/04/16 13:41:40;;;;;;;4.03;2.37;;;;;;;;;;5108017;28;20593;-71
2022/04/16 13:44:10;;;;;;;3.53;2.20;;;;;;;;;;5090801;28;20476;-73
2022/04/16 13:46:37;;;;;;;2.50;1.80;;;;;;;;;;5104571;28;20953;-70
2022/04/16 13:49:05;;;;;;;3.90;1.60;;;;;;;;;;5095071;28;20850;-69
2022/04/16 13:51:33;;;;;;;2.30;1.80;;;;;;;;;;5102992;28;20549;-69
2022/04/16 13:54:01;;;;;;;4.00;2.27;;;;;;;;;;5100124;28;20488;-69
2022/04/16 13:56:28;;;;;;;3.40;1.93;;;;;;;;;;5096397;28;20445;-70
2022/04/16 13:58:56;;;;;;;3.07;2.07;;;;;;;;;;5090666;28;21261;-69
2022/04/16 14:01:23;;;;;;;3.43;2.20;;;;;;;;;;5101831;28;20481;-69
2022/04/16 14:03:50;;;;;;;4.57;2.50;;;;;;;;;;5101207;28;20833;-69
2022/04/16 14:06:18;;;;;;;4.80;1.87;;;;;;;;;;5105879;28;20513;-71
2022/04/16 14:08:46;;;;;;;2.63;2.20;;;;;;;;;;5103797;28;20479;-70
2022/04/16 14:11:15;;;;;;;3.80;2.10;;;;;;;;;;5099261;28;20459;-68
2022/04/16 14:13:42;;;;;;;3.47;1.63;;;;;;;;;;5103686;28;20452;-72
2022/04/16 14:16:11;;;;;;;1.73;1.47;;;;;;;;;;5102556;28;20488;-72
2022/04/16 14:18:38;;;;;;;2.25;1.63;;;;;;;;;;5097997;28;20561;-72
2022/04/16 14:21:07;;;;;;;2.23;1.90;;;;;;;;;;5108048;28;20194;-72
2022/04/16 14:23:34;;;;;;;3.33;1.90;;;;;;;;;;5096501;28;20468;-71
2022/04/16 14:26:03;;;;;;;3.50;1.20;;;;;;;;;;5102994;28;20445;-72
2022/04/16 14:28:32;;;;;;;2.22;1.70;;;;;;;;;;5101279;28;20486;-71
2022/04/16 14:30:59;;;;;;;2.97;2.10;;;;;;;;;;5093034;28;20221;-71
2022/04/16 14:33:27;;;;;;;3.63;2.23;;;;;;;;;;5102306;28;20452;-72
2022/04/16 14:35:55;;;;;;;2.60;1.90;;;;;;;;;;5095242;28;20466;-70
2022/04/16 14:38:24;;;;;;;2.33;2.10;;;;;;;;;;5104562;28;20558;-70
2022/04/16 14:40:51;;;;;;;2.87;1.97;;;;;;;;;;5095656;28;20937;-69
2022/04/16 14:43:19;;;;;;;2.43;1.70;;;12.90;99.90;;;;;;5102128;28;20455;-70
2022/04/16 14:45:46;;;;;;;3.40;1.93;;;;;;;;;;5099656;28;20444;-72
2022/04/16 14:48:14;;;;;;;4.00;1.93;;;;;;;;;;5094143;28;20513;-71
2022/04/16 14:50:40;;;;;;;2.97;1.87;;;18.60;1.00;;;;;;5098571;28;20441;-69
2022/04/16 14:53:07;;;;;;;2.23;1.63;;;19.80;1.00;;;;;;5090954;28;20445;-71
2022/04/16 14:55:36;;;;;;;4.60;1.70;;;;;;;;;;5094532;28;20531;-72
2022/04/16 14:58:05;;;;;;;1.60;1.50;;;20.00;1.00;;;;;;5102701;28;20547;-72
2022/04/16 15:00:33;;;;;;;2.70;1.77;;;20.40;1.00;;;;;;5096205;28;20460;-72
2022/04/16 15:03:02;;;;;;;1.77;1.50;;;20.90;1.00;;;;;;5095888;28;20490;-72
2022/04/16 15:05:29;;;;;;;2.53;2.03;;;20.90;1.00;;;;;;5094296;28;20455;-71
2022/04/16 15:07:56;;;;;;;2.60;1.93;;;21.70;1.00;;;;;;5089883;28;21056;-73